LiveATC.Net - Listen to live air traffic control over the Internet!


ICAO: KINT  IATA: INT   Airport: Smith Reynolds Airport
City: Winston Salem   State/Province: North Carolina
Country: United States   Continent: North America
KINT METAR Weather: KINT 061454Z 06009G14KT 3SM -RA BR OVC007 06/04 A2991 RMK AO2 CIG 005V012 SLP127 P0006 60018 T00610044 56017
KINT Flight Activity (FlightAware)
KINT Airport Info   (AirNav) (iFlightPlanner)
KINT VFR Sectional Chart   (iFlightPlanner) 
KINT IFR Low Chart   (iFlightPlanner) 
KINT Ground/Tower
Feed Status: DOWN
Last heard on: 2016-12-06 15:58:03 (0 days 0 hours 1 minutes ago)
KINT Ground/Tower Audio Archives
FacilityFrequency
Winston-Salem Ground128.250
Winston-Salem Tower123.750


NOTICE

Unauthorized use prohibited. See LiveATC.net Terms of Service


Find LiveATC Audio Streams


Airport/ARTCC Code

Frequency
(e.g., 124.400, 128.75)
Site-wide search

Browse LiveATC Feeds
LiveATC Coverage Map
Top 50 LiveATC Feeds
Bad Weather Areas

LiveATC FAQ
Offer a LiveATC Feed
Contact LiveATC.net
Press Inquiries

LiveATC on iPhone
LiveATC on Android

Windows Phone
Windows 8/10

LiveATC Mobile
(Mobile browser)

ATC Audio Archives
Interesting Recordings

LiveATC Forums


Home Page
About LiveATC.net
Make a Donation
LiveATC Store

Terms of Use
Privacy Policy

Canadian Air Freqs

AIRMETs/SIGMETs

FAA Airport Status
Nat'l Airspace Status
Arrival Demand Charts


Server Software By:
Icecast.org
Liquidsoap